sensor_id;sensor_type;location;lat;lon;timestamp;P1;durP1;ratioP1;P2;durP2;ratioP2
65033;SDS011;51601;51.356;12.458;2023-06-10T00:03:28;9.73;;;4.30;;
65033;SDS011;51601;51.356;12.458;2023-06-10T00:08:09;9.93;;;4.00;;
65033;SDS011;51601;51.356;12.458;2023-06-10T00:12:47;9.77;;;4.30;;
65033;SDS011;51601;51.356;12.458;2023-06-10T00:17:27;11.77;;;4.30;;
65033;SDS011;51601;51.356;12.458;2023-06-10T00:22:07;9.63;;;4.43;;
65033;SDS011;51601;51.356;12.458;2023-06-10T00:26:48;8.17;;;4.30;;
65033;SDS011;51601;51.356;12.458;2023-06-10T00:31:26;9.07;;;4.35;;
65033;SDS011;51601;51.356;12.458;2023-06-10T00:36:05;10.70;;;4.63;;
65033;SDS011;51601;51.356;12.458;2023-06-10T00:40:45;7.90;;;4.17;;
65033;SDS011;51601;51.356;12.458;2023-06-10T00:45:26;10.48;;;4.50;;
65033;SDS011;51601;51.356;12.458;2023-06-10T00:50:04;10.43;;;4.32;;
65033;SDS011;51601;51.356;12.458;2023-06-10T00:54:43;10.98;;;4.60;;
65033;SDS011;51601;51.356;12.458;2023-06-10T00:59:23;8.00;;;4.00;;
65033;SDS011;51601;51.356;12.458;2023-06-10T01:04:04;8.73;;;4.28;;
65033;SDS011;51601;51.356;12.458;2023-06-10T01:08:45;8.98;;;4.40;;
65033;SDS011;51601;51.356;12.458;2023-06-10T01:13:31;9.20;;;4.70;;
65033;SDS011;51601;51.356;12.458;2023-06-10T01:18:10;8.10;;;4.22;;
65033;SDS011;51601;51.356;12.458;2023-06-10T01:22:55;8.02;;;4.80;;
65033;SDS011;51601;51.356;12.458;2023-06-10T01:27:36;8.90;;;4.60;;
65033;SDS011;51601;51.356;12.458;2023-06-10T01:32:20;9.68;;;4.80;;
65033;SDS011;51601;51.356;12.458;2023-06-10T01:37:04;8.23;;;4.72;;
65033;SDS011;51601;51.356;12.458;2023-06-10T01:41:45;9.75;;;4.60;;
65033;SDS011;51601;51.356;12.458;2023-06-10T01:46:26;9.63;;;4.70;;
65033;SDS011;51601;51.356;12.458;2023-06-10T01:51:06;10.30;;;5.10;;
65033;SDS011;51601;51.356;12.458;2023-06-10T01:55:46;8.85;;;4.50;;
65033;SDS011;51601;51.356;12.458;2023-06-10T02:00:27;9.77;;;5.30;;
65033;SDS011;51601;51.356;12.458;2023-06-10T02:05:08;12.35;;;5.20;;
65033;SDS011;51601;51.356;12.458;2023-06-10T02:09:47;11.80;;;5.72;;
65033;SDS011;51601;51.356;12.458;2023-06-10T02:14:27;12.77;;;5.50;;
65033;SDS011;51601;51.356;12.458;2023-06-10T02:19:08;12.15;;;5.90;;
65033;SDS011;51601;51.356;12.458;2023-06-10T02:23:46;9.77;;;6.05;;
65033;SDS011;51601;51.356;12.458;2023-06-10T02:28:25;11.52;;;6.65;;
65033;SDS011;51601;51.356;12.458;2023-06-10T02:33:05;11.73;;;6.77;;
65033;SDS011;51601;51.356;12.458;2023-06-10T02:37:49;11.63;;;6.45;;
65033;SDS011;51601;51.356;12.458;2023-06-10T02:42:30;11.55;;;6.43;;
65033;SDS011;51601;51.356;12.458;2023-06-10T02:47:10;13.17;;;7.17;;
65033;SDS011;51601;51.356;12.458;2023-06-10T02:51:49;12.43;;;6.40;;
65033;SDS011;51601;51.356;12.458;2023-06-10T02:56:33;12.32;;;6.50;;
65033;SDS011;51601;51.356;12.458;2023-06-10T03:01:18;10.93;;;6.00;;
65033;SDS011;51601;51.356;12.458;2023-06-10T03:06:03;12.02;;;6.30;;
65033;SDS011;51601;51.356;12.458;2023-06-10T03:10:43;12.27;;;7.18;;
65033;SDS011;51601;51.356;12.458;2023-06-10T03:15:27;11.93;;;6.50;;
65033;SDS011;51601;51.356;12.458;2023-06-10T03:20:14;11.07;;;6.40;;
65033;SDS011;51601;51.356;12.458;2023-06-10T03:24:54;11.07;;;5.97;;
65033;SDS011;51601;51.356;12.458;2023-06-10T03:29:33;10.23;;;6.40;;
65033;SDS011;51601;51.356;12.458;2023-06-10T03:34:14;9.17;;;5.83;;
65033;SDS011;51601;51.356;12.458;2023-06-10T03:38:53;10.27;;;5.55;;
65033;SDS011;51601;51.356;12.458;2023-06-10T03:43:35;11.32;;;5.78;;
65033;SDS011;51601;51.356;12.458;2023-06-10T03:48:15;13.53;;;6.00;;
65033;SDS011;51601;51.356;12.458;2023-06-10T03:52:59;11.18;;;5.68;;
65033;SDS011;51601;51.356;12.458;2023-06-10T03:57:37;9.77;;;5.70;;
65033;SDS011;51601;51.356;12.458;2023-06-10T04:02:17;10.57;;;5.63;;
65033;SDS011;51601;51.356;12.458;2023-06-10T04:06:56;11.70;;;5.27;;
65033;SDS011;51601;51.356;12.458;2023-06-10T04:11:37;8.32;;;5.20;;
65033;SDS011;51601;51.356;12.458;2023-06-10T04:16:15;10.18;;;4.88;;
65033;SDS011;51601;51.356;12.458;2023-06-10T04:20:58;9.50;;;4.90;;
65033;SDS011;51601;51.356;12.458;2023-06-10T04:25:37;9.77;;;5.22;;
65033;SDS011;51601;51.356;12.458;2023-06-10T04:30:18;10.25;;;5.40;;
65033;SDS011;51601;51.356;12.458;2023-06-10T04:35:00;8.90;;;5.10;;
65033;SDS011;51601;51.356;12.458;2023-06-10T04:39:39;10.48;;;5.68;;
65033;SDS011;51601;51.356;12.458;2023-06-10T04:44:19;9.90;;;5.43;;
65033;SDS011;51601;51.356;12.458;2023-06-10T04:49:00;9.30;;;4.90;;
65033;SDS011;51601;51.356;12.458;2023-06-10T04:53:38;8.87;;;5.20;;
65033;SDS011;51601;51.356;12.458;2023-06-10T04:58:17;10.15;;;4.88;;
65033;SDS011;51601;51.356;12.458;2023-06-10T05:02:57;8.88;;;4.82;;
65033;SDS011;51601;51.356;12.458;2023-06-10T05:07:38;9.13;;;5.60;;
65033;SDS011;51601;51.356;12.458;2023-06-10T05:12:16;9.18;;;5.47;;
65033;SDS011;51601;51.356;12.458;2023-06-10T05:16:56;8.73;;;5.20;;
65033;SDS011;51601;51.356;12.458;2023-06-10T05:21:35;9.93;;;5.47;;
65033;SDS011;51601;51.356;12.458;2023-06-10T05:26:16;9.38;;;5.15;;
65033;SDS011;51601;51.356;12.458;2023-06-10T05:30:54;10.68;;;5.88;;
65033;SDS011;51601;51.356;12.458;2023-06-10T05:35:34;11.10;;;5.82;;
65033;SDS011;51601;51.356;12.458;2023-06-10T05:40:13;9.77;;;5.33;;
65033;SDS011;51601;51.356;12.458;2023-06-10T05:44:54;10.05;;;5.25;;
65033;SDS011;51601;51.356;12.458;2023-06-10T05:49:32;9.77;;;5.32;;
65033;SDS011;51601;51.356;12.458;2023-06-10T05:54:12;11.67;;;5.60;;
65033;SDS011;51601;51.356;12.458;2023-06-10T05:58:52;9.20;;;5.30;;
65033;SDS011;51601;51.356;12.458;2023-06-10T06:03:33;10.25;;;5.60;;
65033;SDS011;51601;51.356;12.458;2023-06-10T06:08:11;8.50;;;4.87;;
65033;SDS011;51601;51.356;12.458;2023-06-10T06:12:53;9.70;;;5.50;;
65033;SDS011;51601;51.356;12.458;2023-06-10T06:17:33;8.50;;;4.95;;
65033;SDS011;51601;51.356;12.458;2023-06-10T06:22:14;9.48;;;5.60;;
65033;SDS011;51601;51.356;12.458;2023-06-10T06:26:58;9.13;;;4.97;;
65033;SDS011;51601;51.356;12.458;2023-06-10T06:31:38;8.35;;;5.20;;
65033;SDS011;51601;51.356;12.458;2023-06-10T06:36:17;10.45;;;5.22;;
65033;SDS011;51601;51.356;12.458;2023-06-10T06:40:58;9.23;;;5.40;;
65033;SDS011;51601;51.356;12.458;2023-06-10T06:45:39;12.07;;;5.47;;
65033;SDS011;51601;51.356;12.458;2023-06-10T06:50:19;8.07;;;5.65;;
65033;SDS011;51601;51.356;12.458;2023-06-10T06:54:59;9.60;;;5.63;;
65033;SDS011;51601;51.356;12.458;2023-06-10T06:59:40;10.23;;;5.53;;
65033;SDS011;51601;51.356;12.458;2023-06-10T07:04:18;9.45;;;5.75;;
65033;SDS011;51601;51.356;12.458;2023-06-10T07:08:57;10.48;;;5.45;;
65033;SDS011;51601;51.356;12.458;2023-06-10T07:13:37;10.77;;;5.80;;
65033;SDS011;51601;51.356;12.458;2023-06-10T07:18:18;8.57;;;5.70;;
65033;SDS011;51601;51.356;12.458;2023-06-10T07:22:56;9.45;;;5.72;;
65033;SDS011;51601;51.356;12.458;2023-06-10T07:27:36;10.13;;;5.90;;
65033;SDS011;51601;51.356;12.458;2023-06-10T07:32:15;9.98;;;5.50;;
65033;SDS011;51601;51.356;12.458;2023-06-10T07:36:56;9.93;;;5.78;;
65033;SDS011;51601;51.356;12.458;2023-06-10T07:41:34;9.33;;;5.60;;
65033;SDS011;51601;51.356;12.458;2023-06-10T07:46:14;9.40;;;6.03;;
65033;SDS011;51601;51.356;12.458;2023-06-10T07:50:53;8.75;;;5.72;;
65033;SDS011;51601;51.356;12.458;2023-06-10T07:55:34;9.75;;;5.72;;
65033;SDS011;51601;51.356;12.458;2023-06-10T08:00:13;8.73;;;5.40;;
65033;SDS011;51601;51.356;12.458;2023-06-10T08:04:52;9.13;;;6.10;;
65033;SDS011;51601;51.356;12.458;2023-06-10T08:09:32;11.40;;;5.97;;
65033;SDS011;51601;51.356;12.458;2023-06-10T08:14:12;10.80;;;6.37;;
65033;SDS011;51601;51.356;12.458;2023-06-10T08:18:54;9.80;;;5.85;;
65033;SDS011;51601;51.356;12.458;2023-06-10T08:23:33;10.00;;;6.28;;
65033;SDS011;51601;51.356;12.458;2023-06-10T08:28:13;9.40;;;5.60;;
65033;SDS011;51601;51.356;12.458;2023-06-10T08:32:54;10.05;;;5.97;;
65033;SDS011;51601;51.356;12.458;2023-06-10T08:37:32;9.02;;;5.53;;
65033;SDS011;51601;51.356;12.458;2023-06-10T08:42:14;10.02;;;5.45;;
65033;SDS011;51601;51.356;12.458;2023-06-10T08:47:00;9.33;;;5.67;;
65033;SDS011;51601;51.356;12.458;2023-06-10T08:51:48;8.15;;;5.43;;
65033;SDS011;51601;51.356;12.458;2023-06-10T08:56:30;8.45;;;5.25;;
65033;SDS011;51601;51.356;12.458;2023-06-10T09:01:14;9.53;;;5.60;;
65033;SDS011;51601;51.356;12.458;2023-06-10T09:05:54;9.02;;;5.63;;
65033;SDS011;51601;51.356;12.458;2023-06-10T09:10:36;9.15;;;6.03;;
65033;SDS011;51601;51.356;12.458;2023-06-10T09:15:19;10.50;;;5.90;;
65033;SDS011;51601;51.356;12.458;2023-06-10T09:19:59;9.20;;;5.93;;
65033;SDS011;51601;51.356;12.458;2023-06-10T09:24:38;9.90;;;5.95;;
65033;SDS011;51601;51.356;12.458;2023-06-10T09:29:19;8.77;;;5.72;;
65033;SDS011;51601;51.356;12.458;2023-06-10T09:34:04;9.53;;;6.00;;
65033;SDS011;51601;51.356;12.458;2023-06-10T09:38:43;9.85;;;5.97;;
65033;SDS011;51601;51.356;12.458;2023-06-10T09:43:23;8.82;;;5.47;;
65033;SDS011;51601;51.356;12.458;2023-06-10T09:48:16;10.97;;;6.60;;
65033;SDS011;51601;51.356;12.458;2023-06-10T09:52:54;10.82;;;6.43;;
65033;SDS011;51601;51.356;12.458;2023-06-10T09:57:34;10.35;;;6.80;;
65033;SDS011;51601;51.356;12.458;2023-06-10T10:02:14;11.37;;;7.00;;
65033;SDS011;51601;51.356;12.458;2023-06-10T10:06:54;12.27;;;7.55;;
65033;SDS011;51601;51.356;12.458;2023-06-10T10:11:32;10.57;;;7.75;;
65033;SDS011;51601;51.356;12.458;2023-06-10T10:16:14;11.15;;;7.88;;
65033;SDS011;51601;51.356;12.458;2023-06-10T10:20:55;10.77;;;7.60;;
65033;SDS011;51601;51.356;12.458;2023-06-10T10:25:37;12.70;;;7.55;;
65033;SDS011;51601;51.356;12.458;2023-06-10T10:30:17;9.80;;;6.97;;
65033;SDS011;51601;51.356;12.458;2023-06-10T10:35:01;9.20;;;7.07;;
65033;SDS011;51601;51.356;12.458;2023-06-10T10:39:48;10.75;;;7.45;;
65033;SDS011;51601;51.356;12.458;2023-06-10T10:44:29;12.48;;;7.63;;
65033;SDS011;51601;51.356;12.458;2023-06-10T10:49:11;9.90;;;7.37;;
65033;SDS011;51601;51.356;12.458;2023-06-10T10:54:11;8.95;;;6.90;;
65033;SDS011;51601;51.356;12.458;2023-06-10T10:59:01;9.93;;;6.65;;
65033;SDS011;51601;51.356;12.458;2023-06-10T11:03:44;11.05;;;7.10;;
65033;SDS011;51601;51.356;12.458;2023-06-10T11:08:45;8.80;;;5.97;;
65033;SDS011;51601;51.356;12.458;2023-06-10T11:13:27;9.95;;;7.50;;
65033;SDS011;51601;51.356;12.458;2023-06-10T11:18:07;9.60;;;7.40;;
65033;SDS011;51601;51.356;12.458;2023-06-10T11:22:59;9.30;;;6.80;;
65033;SDS011;51601;51.356;12.458;2023-06-10T11:27:40;9.57;;;7.68;;
65033;SDS011;51601;51.356;12.458;2023-06-10T11:32:20;10.75;;;7.53;;
65033;SDS011;51601;51.356;12.458;2023-06-10T11:37:00;10.87;;;7.90;;
65033;SDS011;51601;51.356;12.458;2023-06-10T11:41:45;10.20;;;7.35;;
65033;SDS011;51601;51.356;12.458;2023-06-10T11:46:25;11.38;;;7.55;;
65033;SDS011;51601;51.356;12.458;2023-06-10T11:51:05;9.50;;;7.38;;
65033;SDS011;51601;51.356;12.458;2023-06-10T11:55:45;11.53;;;7.17;;
65033;SDS011;51601;51.356;12.458;2023-06-10T12:00:25;9.48;;;7.18;;
65033;SDS011;51601;51.356;12.458;2023-06-10T12:05:09;12.13;;;7.10;;
65033;SDS011;51601;51.356;12.458;2023-06-10T12:09:58;10.60;;;7.20;;
65033;SDS011;51601;51.356;12.458;2023-06-10T12:14:56;9.90;;;7.00;;
65033;SDS011;51601;51.356;12.458;2023-06-10T12:19:39;8.85;;;6.55;;
65033;SDS011;51601;51.356;12.458;2023-06-10T12:24:18;10.00;;;7.33;;
65033;SDS011;51601;51.356;12.458;2023-06-10T12:28:58;9.25;;;6.90;;
65033;SDS011;51601;51.356;12.458;2023-06-10T12:33:37;9.82;;;7.00;;
65033;SDS011;51601;51.356;12.458;2023-06-10T12:38:22;10.25;;;6.13;;
65033;SDS011;51601;51.356;12.458;2023-06-10T12:43:03;14.00;;;7.80;;
65033;SDS011;51601;51.356;12.458;2023-06-10T12:47:42;19.38;;;7.90;;
65033;SDS011;51601;51.356;12.458;2023-06-10T12:52:22;18.27;;;9.35;;
65033;SDS011;51601;51.356;12.458;2023-06-10T12:57:03;15.10;;;10.30;;
65033;SDS011;51601;51.356;12.458;2023-06-10T13:01:44;15.65;;;10.88;;
65033;SDS011;51601;51.356;12.458;2023-06-10T13:06:27;14.00;;;10.15;;
65033;SDS011;51601;51.356;12.458;2023-06-10T13:11:06;14.53;;;9.97;;
65033;SDS011;51601;51.356;12.458;2023-06-10T13:15:47;12.85;;;8.45;;
65033;SDS011;51601;51.356;12.458;2023-06-10T13:20:25;12.10;;;8.07;;
65033;SDS011;51601;51.356;12.458;2023-06-10T13:25:05;10.48;;;6.38;;
65033;SDS011;51601;51.356;12.458;2023-06-10T13:29:44;10.20;;;6.90;;
65033;SDS011;51601;51.356;12.458;2023-06-10T13:34:25;10.13;;;6.60;;
65033;SDS011;51601;51.356;12.458;2023-06-10T13:39:07;9.45;;;5.95;;
65033;SDS011;51601;51.356;12.458;2023-06-10T13:43:46;11.73;;;6.10;;
65033;SDS011;51601;51.356;12.458;2023-06-10T13:48:26;10.88;;;5.70;;
65033;SDS011;51601;51.356;12.458;2023-06-10T13:53:07;7.38;;;4.10;;
65033;SDS011;51601;51.356;12.458;2023-06-10T13:57:45;7.80;;;4.63;;
65033;SDS011;51601;51.356;12.458;2023-06-10T14:02:24;6.82;;;3.75;;
65033;SDS011;51601;51.356;12.458;2023-06-10T14:07:04;8.00;;;3.70;;
65033;SDS011;51601;51.356;12.458;2023-06-10T14:11:45;6.63;;;3.50;;
65033;SDS011;51601;51.356;12.458;2023-06-10T14:16:26;6.47;;;3.33;;
65033;SDS011;51601;51.356;12.458;2023-06-10T14:21:06;6.57;;;3.50;;
65033;SDS011;51601;51.356;12.458;2023-06-10T14:25:45;7.05;;;3.58;;
65033;SDS011;51601;51.356;12.458;2023-06-10T14:30:26;6.60;;;3.37;;
65033;SDS011;51601;51.356;12.458;2023-06-10T14:35:05;7.22;;;3.13;;
65033;SDS011;51601;51.356;12.458;2023-06-10T14:39:44;6.65;;;3.10;;
65033;SDS011;51601;51.356;12.458;2023-06-10T14:44:24;7.70;;;3.50;;
65033;SDS011;51601;51.356;12.458;2023-06-10T14:49:05;6.47;;;3.20;;
65033;SDS011;51601;51.356;12.458;2023-06-10T14:53:43;6.80;;;4.20;;
65033;SDS011;51601;51.356;12.458;2023-06-10T14:58:22;7.78;;;4.75;;
65033;SDS011;51601;51.356;12.458;2023-06-10T15:03:02;9.77;;;5.03;;
65033;SDS011;51601;51.356;12.458;2023-06-10T15:07:43;7.70;;;5.00;;
65033;SDS011;51601;51.356;12.458;2023-06-10T15:12:21;9.27;;;5.13;;
65033;SDS011;51601;51.356;12.458;2023-06-10T15:17:01;9.93;;;6.00;;
65033;SDS011;51601;51.356;12.458;2023-06-10T15:21:40;12.18;;;5.85;;
65033;SDS011;51601;51.356;12.458;2023-06-10T15:26:21;9.48;;;5.60;;
65033;SDS011;51601;51.356;12.458;2023-06-10T15:30:59;8.67;;;5.43;;
65033;SDS011;51601;51.356;12.458;2023-06-10T15:35:39;9.23;;;6.22;;
65033;SDS011;51601;51.356;12.458;2023-06-10T15:40:18;10.23;;;5.97;;
65033;SDS011;51601;51.356;12.458;2023-06-10T15:44:59;12.25;;;6.20;;
65033;SDS011;51601;51.356;12.458;2023-06-10T15:49:37;10.10;;;6.83;;
65033;SDS011;51601;51.356;12.458;2023-06-10T15:54:17;10.63;;;7.15;;
65033;SDS011;51601;51.356;12.458;2023-06-10T15:58:56;11.00;;;7.45;;
65033;SDS011;51601;51.356;12.458;2023-06-10T16:03:37;11.13;;;7.40;;
65033;SDS011;51601;51.356;12.458;2023-06-10T16:08:16;12.32;;;7.53;;
65033;SDS011;51601;51.356;12.458;2023-06-10T16:12:55;11.25;;;7.28;;
65033;SDS011;51601;51.356;12.458;2023-06-10T16:17:35;9.67;;;7.43;;
65033;SDS011;51601;51.356;12.458;2023-06-10T16:22:16;10.40;;;7.40;;
65033;SDS011;51601;51.356;12.458;2023-06-10T16:26:54;11.48;;;7.22;;
65033;SDS011;51601;51.356;12.458;2023-06-10T16:31:33;9.35;;;6.68;;
65033;SDS011;51601;51.356;12.458;2023-06-10T16:36:13;10.60;;;7.23;;
65033;SDS011;51601;51.356;12.458;2023-06-10T16:40:54;10.90;;;7.03;;
65033;SDS011;51601;51.356;12.458;2023-06-10T16:45:35;11.88;;;7.35;;
65033;SDS011;51601;51.356;12.458;2023-06-10T16:50:15;10.67;;;7.70;;
65033;SDS011;51601;51.356;12.458;2023-06-10T16:54:54;10.68;;;7.22;;
65033;SDS011;51601;51.356;12.458;2023-06-10T16:59:35;11.70;;;7.55;;
65033;SDS011;51601;51.356;12.458;2023-06-10T17:04:13;11.03;;;7.03;;
65033;SDS011;51601;51.356;12.458;2023-06-10T17:08:53;10.40;;;7.05;;
65033;SDS011;51601;51.356;12.458;2023-06-10T17:13:32;12.25;;;6.93;;
65033;SDS011;51601;51.356;12.458;2023-06-10T17:18:16;10.40;;;7.40;;
65033;SDS011;51601;51.356;12.458;2023-06-10T17:22:55;10.13;;;6.60;;
65033;SDS011;51601;51.356;12.458;2023-06-10T17:27:34;10.98;;;7.35;;
65033;SDS011;51601;51.356;12.458;2023-06-10T17:32:14;10.20;;;7.13;;
65033;SDS011;51601;51.356;12.458;2023-06-10T17:36:55;12.53;;;7.67;;
65033;SDS011;51601;51.356;12.458;2023-06-10T17:41:33;11.00;;;7.40;;
65033;SDS011;51601;51.356;12.458;2023-06-10T17:46:13;10.88;;;6.90;;
65033;SDS011;51601;51.356;12.458;2023-06-10T17:50:52;10.73;;;7.17;;
65033;SDS011;51601;51.356;12.458;2023-06-10T17:55:33;10.13;;;7.28;;
65033;SDS011;51601;51.356;12.458;2023-06-10T18:00:11;12.60;;;7.90;;
65033;SDS011;51601;51.356;12.458;2023-06-10T18:04:51;9.80;;;7.10;;
65033;SDS011;51601;51.356;12.458;2023-06-10T18:09:30;11.27;;;7.60;;
65033;SDS011;51601;51.356;12.458;2023-06-10T18:14:11;10.52;;;7.45;;
65033;SDS011;51601;51.356;12.458;2023-06-10T18:18:49;12.20;;;7.75;;
65033;SDS011;51601;51.356;12.458;2023-06-10T18:23:29;11.87;;;6.83;;
65033;SDS011;51601;51.356;12.458;2023-06-10T18:28:08;11.25;;;7.40;;
65033;SDS011;51601;51.356;12.458;2023-06-10T18:32:49;10.63;;;7.47;;
65033;SDS011;51601;51.356;12.458;2023-06-10T18:37:28;10.77;;;7.33;;
65033;SDS011;51601;51.356;12.458;2023-06-10T18:42:07;11.10;;;7.50;;
65033;SDS011;51601;51.356;12.458;2023-06-10T18:46:47;11.52;;;7.05;;
65033;SDS011;51601;51.356;12.458;2023-06-10T18:51:28;12.75;;;7.43;;
65033;SDS011;51601;51.356;12.458;2023-06-10T18:56:06;10.40;;;7.10;;
65033;SDS011;51601;51.356;12.458;2023-06-10T19:00:45;10.88;;;7.28;;
65033;SDS011;51601;51.356;12.458;2023-06-10T19:05:25;11.93;;;8.00;;
65033;SDS011;51601;51.356;12.458;2023-06-10T19:10:07;12.13;;;8.60;;
65033;SDS011;51601;51.356;12.458;2023-06-10T19:14:47;12.15;;;7.95;;
65033;SDS011;51601;51.356;12.458;2023-06-10T19:19:27;11.60;;;7.50;;
65033;SDS011;51601;51.356;12.458;2023-06-10T19:24:06;11.53;;;6.70;;
65033;SDS011;51601;51.356;12.458;2023-06-10T19:28:47;9.88;;;6.78;;
65033;SDS011;51601;51.356;12.458;2023-06-10T19:33:25;9.32;;;6.43;;
65033;SDS011;51601;51.356;12.458;2023-06-10T19:38:05;10.50;;;5.72;;
65033;SDS011;51601;51.356;12.458;2023-06-10T19:42:45;10.63;;;6.37;;
65033;SDS011;51601;51.356;12.458;2023-06-10T19:47:25;10.88;;;6.55;;
65033;SDS011;51601;51.356;12.458;2023-06-10T19:52:04;11.15;;;6.68;;
65033;SDS011;51601;51.356;12.458;2023-06-10T19:56:43;10.63;;;6.90;;
65033;SDS011;51601;51.356;12.458;2023-06-10T20:01:23;10.70;;;7.25;;
65033;SDS011;51601;51.356;12.458;2023-06-10T20:06:04;10.82;;;6.43;;
65033;SDS011;51601;51.356;12.458;2023-06-10T20:10:42;11.33;;;7.37;;
65033;SDS011;51601;51.356;12.458;2023-06-10T20:15:21;11.55;;;6.88;;
65033;SDS011;51601;51.356;12.458;2023-06-10T20:20:01;11.77;;;7.47;;
65033;SDS011;51601;51.356;12.458;2023-06-10T20:30:17;11.47;;;7.80;;
65033;SDS011;51601;51.356;12.458;2023-06-10T20:35:25;11.63;;;7.88;;
65033;SDS011;51601;51.356;12.458;2023-06-10T20:46:14;14.07;;;8.70;;
65033;SDS011;51601;51.356;12.458;2023-06-10T20:51:23;12.20;;;8.68;;
65033;SDS011;51601;51.356;12.458;2023-06-10T20:56:32;14.02;;;8.98;;
65033;SDS011;51601;51.356;12.458;2023-06-10T21:01:12;13.43;;;9.63;;
65033;SDS011;51601;51.356;12.458;2023-06-10T21:05:51;12.75;;;9.15;;
65033;SDS011;51601;51.356;12.458;2023-06-10T21:10:33;11.45;;;8.73;;
65033;SDS011;51601;51.356;12.458;2023-06-10T21:15:14;13.30;;;8.65;;
65033;SDS011;51601;51.356;12.458;2023-06-10T21:19:54;13.27;;;9.10;;
65033;SDS011;51601;51.356;12.458;2023-06-10T21:24:32;13.93;;;9.50;;
65033;SDS011;51601;51.356;12.458;2023-06-10T21:29:11;13.38;;;9.30;;
65033;SDS011;51601;51.356;12.458;2023-06-10T21:33:51;13.47;;;8.90;;
65033;SDS011;51601;51.356;12.458;2023-06-10T21:38:32;12.20;;;8.38;;
65033;SDS011;51601;51.356;12.458;2023-06-10T21:43:10;12.57;;;8.70;;
65033;SDS011;51601;51.356;12.458;2023-06-10T21:47:50;12.13;;;8.33;;
65033;SDS011;51601;51.356;12.458;2023-06-10T21:52:29;12.43;;;8.38;;
65033;SDS011;51601;51.356;12.458;2023-06-10T21:57:10;11.70;;;7.55;;
65033;SDS011;51601;51.356;12.458;2023-06-10T22:01:48;10.40;;;7.35;;
65033;SDS011;51601;51.356;12.458;2023-06-10T22:06:28;12.37;;;7.37;;
65033;SDS011;51601;51.356;12.458;2023-06-10T22:11:08;11.85;;;7.32;;
65033;SDS011;51601;51.356;12.458;2023-06-10T22:15:48;11.57;;;7.18;;
65033;SDS011;51601;51.356;12.458;2023-06-10T22:20:27;10.90;;;7.20;;
65033;SDS011;51601;51.356;12.458;2023-06-10T22:25:06;11.73;;;6.90;;
65033;SDS011;51601;51.356;12.458;2023-06-10T22:29:46;12.52;;;6.72;;
65033;SDS011;51601;51.356;12.458;2023-06-10T22:34:27;11.50;;;6.80;;
65033;SDS011;51601;51.356;12.458;2023-06-10T22:39:06;11.10;;;6.82;;
65033;SDS011;51601;51.356;12.458;2023-06-10T22:43:48;11.25;;;7.10;;
65033;SDS011;51601;51.356;12.458;2023-06-10T22:48:27;11.02;;;7.20;;
65033;SDS011;51601;51.356;12.458;2023-06-10T22:53:08;10.53;;;6.80;;
65033;SDS011;51601;51.356;12.458;2023-06-10T22:57:46;12.38;;;7.13;;
65033;SDS011;51601;51.356;12.458;2023-06-10T23:02:26;12.48;;;6.40;;
65033;SDS011;51601;51.356;12.458;2023-06-10T23:07:05;11.77;;;6.87;;
65033;SDS011;51601;51.356;12.458;2023-06-10T23:11:46;14.25;;;7.45;;
65033;SDS011;51601;51.356;12.458;2023-06-10T23:16:24;11.75;;;6.32;;
65033;SDS011;51601;51.356;12.458;2023-06-10T23:21:04;11.97;;;6.40;;
65033;SDS011;51601;51.356;12.458;2023-06-10T23:25:44;13.30;;;7.03;;
65033;SDS011;51601;51.356;12.458;2023-06-10T23:30:24;12.80;;;7.10;;
65033;SDS011;51601;51.356;12.458;2023-06-10T23:35:03;13.48;;;7.60;;
65033;SDS011;51601;51.356;12.458;2023-06-10T23:39:42;10.87;;;6.77;;
65033;SDS011;51601;51.356;12.458;2023-06-10T23:44:22;14.57;;;7.25;;
65033;SDS011;51601;51.356;12.458;2023-06-10T23:49:03;12.35;;;7.85;;
65033;SDS011;51601;51.356;12.458;2023-06-10T23:53:44;12.50;;;7.67;;
65033;SDS011;51601;51.356;12.458;2023-06-10T23:58:23;10.68;;;7.32;;
